Hauptseite
METAR-TAF:

METAR-TAF

Flughäfen :

Holzdorf, Deutschland

Fliegerhorst Holzdorf

Breite: 51-46N, Länge: 013-11E, Höhe: 79 m

Beobachtung

Neuester Wetterbericht von vor 1 Stunde und 8 Minuten, um 10:20 UTC
Wind 7 kt aus West
Temperatur 11°C
Luftfeuchtigkeit 50%
Luftdruck 1030 hPa
Sichtweite 10 km oder mehr
Leicht bewölkt in der Höhe von 13000 ft
Durchbrochene Bewölkung in der Höhe von 22000 ft

METAR: ETSH 251020Z 27007KT 9999 FEW130 BKN220 11/01 Q1030 BLU+

Zeit: 12:28 (11:28 UTC)

Prognose

Neuester Wetterbericht von vor 25 Stunden und 1 Minuten, um 10:27 UTC
Gültige Prognose vom 24 um 09 UTC bis 24 um 18 UTC
Wind 8 kt aus Nordost
Sichtweite: 1100 m
Leicht bewölkt in der Höhe von 25000 ft

TAF: ETSH 241027Z 2409/2418 05008KT 9999 NSW FEW250 CANCEL 1100

Wetterbeobachtungen und Prognosen von mehr als 4000 Flughäfen (METAR und TAF Bericht).

Die verfügbaren Stationen werden durch gelbe und rote Markierungen auf der Karte dargestellt.

Führen Sie die Maus auf sie, um den Namen der Station zu sehen.

Darauf klicken, um die Beobachtung von Wetterbeobachtungen und Prognosen zu sehen.

Um die Karte zu ändern : klicken Sie auf den grünen Tasten mit einem schwarzen Kreuz Zum Vergrößern, auf den grünen Button mit einem Gedankenstrich zu verkleinern, oder auf die grünen Pfeile für benachbarte Karten.


METAR-TAF: